sensor_id;sensor_type;location;lat;lon;timestamp;temperature;humidity
72114;SHT31;59989;46.220;19.888;2023-07-28T00:02:46;14.44;79.56
72114;SHT31;59989;46.220;19.888;2023-07-28T00:05:49;14.36;79.43
72114;SHT31;59989;46.220;19.888;2023-07-28T00:08:51;14.30;79.85
72114;SHT31;59989;46.220;19.888;2023-07-28T00:11:58;14.39;79.02
72114;SHT31;59989;46.220;19.888;2023-07-28T00:15:01;14.40;78.61
72114;SHT31;59989;46.220;19.888;2023-07-28T00:18:04;14.33;78.72
72114;SHT31;59989;46.220;19.888;2023-07-28T00:21:06;14.30;79.04
72114;SHT31;59989;46.220;19.888;2023-07-28T00:24:08;14.41;79.03
72114;SHT31;59989;46.220;19.888;2023-07-28T00:27:11;14.40;79.16
72114;SHT31;59989;46.220;19.888;2023-07-28T00:30:19;14.33;79.64
72114;SHT31;59989;46.220;19.888;2023-07-28T00:33:22;14.25;79.64
72114;SHT31;59989;46.220;19.888;2023-07-28T00:36:25;14.20;79.69
72114;SHT31;59989;46.220;19.888;2023-07-28T00:39:27;14.19;79.67
72114;SHT31;59989;46.220;19.888;2023-07-28T00:42:30;14.16;79.80
72114;SHT31;59989;46.220;19.888;2023-07-28T00:45:33;14.16;79.31
72114;SHT31;59989;46.220;19.888;2023-07-28T00:48:36;14.16;79.17
72114;SHT31;59989;46.220;19.888;2023-07-28T00:51:42;14.13;79.61
72114;SHT31;59989;46.220;19.888;2023-07-28T00:54:45;14.13;80.03
72114;SHT31;59989;46.220;19.888;2023-07-28T00:57:47;14.08;80.99
72114;SHT31;59989;46.220;19.888;2023-07-28T01:00:51;14.04;81.06
72114;SHT31;59989;46.220;19.888;2023-07-28T01:03:54;14.04;79.97
72114;SHT31;59989;46.220;19.888;2023-07-28T01:07:24;14.01;80.59
72114;SHT31;59989;46.220;19.888;2023-07-28T01:10:31;14.08;79.93
72114;SHT31;59989;46.220;19.888;2023-07-28T01:13:37;14.08;79.28
72114;SHT31;59989;46.220;19.888;2023-07-28T01:16:39;14.01;79.34
72114;SHT31;59989;46.220;19.888;2023-07-28T01:19:42;13.98;79.71
72114;SHT31;59989;46.220;19.888;2023-07-28T01:23:05;13.94;79.95
72114;SHT31;59989;46.220;19.888;2023-07-28T01:26:10;14.01;79.90
72114;SHT31;59989;46.220;19.888;2023-07-28T01:29:14;13.97;79.14
72114;SHT31;59989;46.220;19.888;2023-07-28T01:32:17;13.98;79.49
72114;SHT31;59989;46.220;19.888;2023-07-28T01:35:20;13.94;79.89
72114;SHT31;59989;46.220;19.888;2023-07-28T01:38:22;13.91;79.92
72114;SHT31;59989;46.220;19.888;2023-07-28T01:41:25;13.95;79.51
72114;SHT31;59989;46.220;19.888;2023-07-28T01:44:28;13.97;79.37
72114;SHT31;59989;46.220;19.888;2023-07-28T01:47:31;13.99;79.39
72114;SHT31;59989;46.220;19.888;2023-07-28T01:50:33;14.04;78.97
72114;SHT31;59989;46.220;19.888;2023-07-28T01:53:36;14.10;78.80
72114;SHT31;59989;46.220;19.888;2023-07-28T01:56:38;14.08;78.74
72114;SHT31;59989;46.220;19.888;2023-07-28T01:59:41;14.04;79.20
72114;SHT31;59989;46.220;19.888;2023-07-28T02:02:43;14.02;79.13
72114;SHT31;59989;46.220;19.888;2023-07-28T02:05:46;13.94;79.52
72114;SHT31;59989;46.220;19.888;2023-07-28T02:08:49;13.86;79.45
72114;SHT31;59989;46.220;19.888;2023-07-28T02:11:52;13.79;80.46
72114;SHT31;59989;46.220;19.888;2023-07-28T02:14:54;13.77;80.60
72114;SHT31;59989;46.220;19.888;2023-07-28T02:17:57;13.81;80.74
72114;SHT31;59989;46.220;19.888;2023-07-28T02:21:00;13.79;80.60
72114;SHT31;59989;46.220;19.888;2023-07-28T02:24:03;13.77;81.44
72114;SHT31;59989;46.220;19.888;2023-07-28T02:27:05;13.77;81.50
72114;SHT31;59989;46.220;19.888;2023-07-28T02:30:08;13.71;81.15
72114;SHT31;59989;46.220;19.888;2023-07-28T02:33:11;13.68;81.73
72114;SHT31;59989;46.220;19.888;2023-07-28T02:36:14;13.61;81.76
72114;SHT31;59989;46.220;19.888;2023-07-28T02:39:17;13.62;81.92
72114;SHT31;59989;46.220;19.888;2023-07-28T02:42:20;13.60;82.40
72114;SHT31;59989;46.220;19.888;2023-07-28T02:45:23;13.55;82.44
72114;SHT31;59989;46.220;19.888;2023-07-28T02:48:26;13.55;82.84
72114;SHT31;59989;46.220;19.888;2023-07-28T02:51:30;13.51;83.25
72114;SHT31;59989;46.220;19.888;2023-07-28T02:54:34;13.51;83.36
72114;SHT31;59989;46.220;19.888;2023-07-28T02:57:37;13.48;83.38
72114;SHT31;59989;46.220;19.888;2023-07-28T03:00:40;13.47;83.42
72114;SHT31;59989;46.220;19.888;2023-07-28T03:03:44;13.41;83.37
72114;SHT31;59989;46.220;19.888;2023-07-28T03:06:47;13.39;84.63
72114;SHT31;59989;46.220;19.888;2023-07-28T03:09:50;13.37;84.46
72114;SHT31;59989;46.220;19.888;2023-07-28T03:12:55;13.36;84.45
72114;SHT31;59989;46.220;19.888;2023-07-28T03:15:58;13.39;85.05
72114;SHT31;59989;46.220;19.888;2023-07-28T03:19:00;13.44;84.67
72114;SHT31;59989;46.220;19.888;2023-07-28T03:22:03;13.51;84.58
72114;SHT31;59989;46.220;19.888;2023-07-28T03:25:06;13.55;84.40
72114;SHT31;59989;46.220;19.888;2023-07-28T03:28:08;13.60;84.46
72114;SHT31;59989;46.220;19.888;2023-07-28T03:31:11;13.57;84.56
72114;SHT31;59989;46.220;19.888;2023-07-28T03:34:14;13.55;84.94
72114;SHT31;59989;46.220;19.888;2023-07-28T03:37:17;13.55;84.64
72114;SHT31;59989;46.220;19.888;2023-07-28T03:40:20;13.53;84.25
72114;SHT31;59989;46.220;19.888;2023-07-28T03:43:26;13.50;84.96
72114;SHT31;59989;46.220;19.888;2023-07-28T03:46:28;13.48;84.84
72114;SHT31;59989;46.220;19.888;2023-07-28T03:49:32;13.47;85.04
72114;SHT31;59989;46.220;19.888;2023-07-28T03:52:35;13.47;85.76
72114;SHT31;59989;46.220;19.888;2023-07-28T03:55:37;13.53;85.82
72114;SHT31;59989;46.220;19.888;2023-07-28T03:58:40;13.61;86.33
72114;SHT31;59989;46.220;19.888;2023-07-28T04:01:43;13.65;85.70
72114;SHT31;59989;46.220;19.888;2023-07-28T04:04:46;13.70;85.17
72114;SHT31;59989;46.220;19.888;2023-07-28T04:07:48;13.78;85.01
72114;SHT31;59989;46.220;19.888;2023-07-28T04:10:51;13.88;84.44
72114;SHT31;59989;46.220;19.888;2023-07-28T04:13:53;13.98;84.86
72114;SHT31;59989;46.220;19.888;2023-07-28T04:16:56;14.02;84.46
72114;SHT31;59989;46.220;19.888;2023-07-28T04:19:58;14.04;84.24
72114;SHT31;59989;46.220;19.888;2023-07-28T04:23:01;14.10;84.19
72114;SHT31;59989;46.220;19.888;2023-07-28T04:26:09;14.12;83.23
72114;SHT31;59989;46.220;19.888;2023-07-28T04:29:13;14.19;83.67
72114;SHT31;59989;46.220;19.888;2023-07-28T04:32:16;14.26;83.72
72114;SHT31;59989;46.220;19.888;2023-07-28T04:35:18;14.33;83.34
72114;SHT31;59989;46.220;19.888;2023-07-28T04:38:32;14.51;82.94
72114;SHT31;59989;46.220;19.888;2023-07-28T04:41:36;14.53;81.94
72114;SHT31;59989;46.220;19.888;2023-07-28T04:44:38;14.67;82.04
72114;SHT31;59989;46.220;19.888;2023-07-28T04:47:44;14.81;82.20
72114;SHT31;59989;46.220;19.888;2023-07-28T04:50:47;14.88;81.72
72114;SHT31;59989;46.220;19.888;2023-07-28T04:54:08;14.94;81.44
72114;SHT31;59989;46.220;19.888;2023-07-28T04:57:12;15.05;81.39
72114;SHT31;59989;46.220;19.888;2023-07-28T05:00:17;15.26;80.89
72114;SHT31;59989;46.220;19.888;2023-07-28T05:03:20;15.39;79.69
72114;SHT31;59989;46.220;19.888;2023-07-28T05:06:30;15.52;79.20
72114;SHT31;59989;46.220;19.888;2023-07-28T05:09:32;15.74;79.56
72114;SHT31;59989;46.220;19.888;2023-07-28T05:12:35;15.84;79.12
72114;SHT31;59989;46.220;19.888;2023-07-28T05:15:38;15.94;78.87
72114;SHT31;59989;46.220;19.888;2023-07-28T05:18:43;16.20;78.45
72114;SHT31;59989;46.220;19.888;2023-07-28T05:22:09;16.40;77.67
72114;SHT31;59989;46.220;19.888;2023-07-28T05:25:24;16.47;76.46
72114;SHT31;59989;46.220;19.888;2023-07-28T05:28:27;16.73;76.06
72114;SHT31;59989;46.220;19.888;2023-07-28T05:31:31;16.84;75.69
72114;SHT31;59989;46.220;19.888;2023-07-28T05:34:35;17.07;75.22
72114;SHT31;59989;46.220;19.888;2023-07-28T05:37:37;17.28;75.19
72114;SHT31;59989;46.220;19.888;2023-07-28T05:40:40;17.47;73.59
72114;SHT31;59989;46.220;19.888;2023-07-28T05:43:43;17.55;72.91
72114;SHT31;59989;46.220;19.888;2023-07-28T05:46:45;17.52;73.25
72114;SHT31;59989;46.220;19.888;2023-07-28T05:49:51;17.75;72.65
72114;SHT31;59989;46.220;19.888;2023-07-28T05:52:57;18.05;71.17
72114;SHT31;59989;46.220;19.888;2023-07-28T05:55:59;18.30;69.68
72114;SHT31;59989;46.220;19.888;2023-07-28T05:59:06;18.34;69.84
72114;SHT31;59989;46.220;19.888;2023-07-28T06:02:09;18.58;69.92
72114;SHT31;59989;46.220;19.888;2023-07-28T06:05:28;18.63;69.63
72114;SHT31;59989;46.220;19.888;2023-07-28T06:08:31;18.81;69.45
72114;SHT31;59989;46.220;19.888;2023-07-28T06:11:33;19.03;67.68
72114;SHT31;59989;46.220;19.888;2023-07-28T06:14:38;19.16;66.23
72114;SHT31;59989;46.220;19.888;2023-07-28T06:17:43;19.36;65.63
72114;SHT31;59989;46.220;19.888;2023-07-28T06:20:45;19.63;64.26
72114;SHT31;59989;46.220;19.888;2023-07-28T06:23:48;19.90;63.43
72114;SHT31;59989;46.220;19.888;2023-07-28T06:26:51;20.11;62.15
72114;SHT31;59989;46.220;19.888;2023-07-28T06:29:54;20.28;62.76
72114;SHT31;59989;46.220;19.888;2023-07-28T06:32:57;20.49;61.82
72114;SHT31;59989;46.220;19.888;2023-07-28T06:36:00;20.72;61.66
72114;SHT31;59989;46.220;19.888;2023-07-28T06:39:02;20.76;59.97
72114;SHT31;59989;46.220;19.888;2023-07-28T06:42:06;20.93;58.67
72114;SHT31;59989;46.220;19.888;2023-07-28T06:45:12;21.30;57.83
72114;SHT31;59989;46.220;19.888;2023-07-28T06:48:16;21.58;56.76
72114;SHT31;59989;46.220;19.888;2023-07-28T06:51:19;21.88;56.32
72114;SHT31;59989;46.220;19.888;2023-07-28T06:54:21;21.94;56.03
72114;SHT31;59989;46.220;19.888;2023-07-28T06:57:24;22.02;56.40
72114;SHT31;59989;46.220;19.888;2023-07-28T07:00:26;22.29;55.26
72114;SHT31;59989;46.220;19.888;2023-07-28T07:03:29;22.52;53.95
72114;SHT31;59989;46.220;19.888;2023-07-28T07:06:31;22.94;54.04
72114;SHT31;59989;46.220;19.888;2023-07-28T07:09:34;23.19;52.44
72114;SHT31;59989;46.220;19.888;2023-07-28T07:12:37;23.23;51.57
72114;SHT31;59989;46.220;19.888;2023-07-28T07:15:39;23.33;51.66
72114;SHT31;59989;46.220;19.888;2023-07-28T07:18:44;23.77;51.65
72114;SHT31;59989;46.220;19.888;2023-07-28T07:21:47;24.04;51.37
72114;SHT31;59989;46.220;19.888;2023-07-28T07:24:51;23.64;50.38
72114;SHT31;59989;46.220;19.888;2023-07-28T07:27:53;23.64;50.43
72114;SHT31;59989;46.220;19.888;2023-07-28T07:30:56;23.88;50.09
72114;SHT31;59989;46.220;19.888;2023-07-28T07:33:58;24.01;50.62
72114;SHT31;59989;46.220;19.888;2023-07-28T07:37:02;24.18;49.77
72114;SHT31;59989;46.220;19.888;2023-07-28T07:40:06;24.67;48.59
72114;SHT31;59989;46.220;19.888;2023-07-28T07:43:09;24.62;48.97
72114;SHT31;59989;46.220;19.888;2023-07-28T07:46:14;24.90;47.64
72114;SHT31;59989;46.220;19.888;2023-07-28T07:49:17;24.64;47.48
72114;SHT31;59989;46.220;19.888;2023-07-28T07:52:20;24.76;46.98
72114;SHT31;59989;46.220;19.888;2023-07-28T07:55:23;24.81;46.79
72114;SHT31;59989;46.220;19.888;2023-07-28T07:58:25;24.90;46.68
72114;SHT31;59989;46.220;19.888;2023-07-28T08:01:29;25.12;46.15
72114;SHT31;59989;46.220;19.888;2023-07-28T08:04:32;25.42;44.79
72114;SHT31;59989;46.220;19.888;2023-07-28T08:07:35;25.87;44.47
72114;SHT31;59989;46.220;19.888;2023-07-28T08:10:39;25.92;44.77
72114;SHT31;59989;46.220;19.888;2023-07-28T08:13:42;25.61;44.22
72114;SHT31;59989;46.220;19.888;2023-07-28T08:16:45;25.51;44.77
72114;SHT31;59989;46.220;19.888;2023-07-28T08:19:48;25.76;43.53
72114;SHT31;59989;46.220;19.888;2023-07-28T08:22:50;25.92;43.62
72114;SHT31;59989;46.220;19.888;2023-07-28T08:25:53;26.00;44.35
72114;SHT31;59989;46.220;19.888;2023-07-28T08:28:59;26.47;44.24
72114;SHT31;59989;46.220;19.888;2023-07-28T08:32:03;26.23;42.66
72114;SHT31;59989;46.220;19.888;2023-07-28T08:35:07;26.38;43.86
72114;SHT31;59989;46.220;19.888;2023-07-28T08:38:13;26.41;43.04
72114;SHT31;59989;46.220;19.888;2023-07-28T08:41:16;26.40;42.49
72114;SHT31;59989;46.220;19.888;2023-07-28T08:44:19;26.40;42.35
72114;SHT31;59989;46.220;19.888;2023-07-28T08:47:27;26.57;41.88
72114;SHT31;59989;46.220;19.888;2023-07-28T08:50:30;27.19;41.06
72114;SHT31;59989;46.220;19.888;2023-07-28T08:53:33;27.29;41.45
72114;SHT31;59989;46.220;19.888;2023-07-28T08:56:38;27.26;41.59
72114;SHT31;59989;46.220;19.888;2023-07-28T08:59:41;27.49;41.33
72114;SHT31;59989;46.220;19.888;2023-07-28T09:02:49;27.53;40.39
72114;SHT31;59989;46.220;19.888;2023-07-28T09:06:02;27.76;40.17
72114;SHT31;59989;46.220;19.888;2023-07-28T09:09:06;27.54;41.35
72114;SHT31;59989;46.220;19.888;2023-07-28T09:12:09;28.12;40.09
72114;SHT31;59989;46.220;19.888;2023-07-28T09:15:12;27.78;39.84
72114;SHT31;59989;46.220;19.888;2023-07-28T09:18:16;28.57;39.70
72114;SHT31;59989;46.220;19.888;2023-07-28T09:21:20;28.73;39.35
72114;SHT31;59989;46.220;19.888;2023-07-28T09:24:33;28.73;39.64
72114;SHT31;59989;46.220;19.888;2023-07-28T09:27:36;28.32;38.98
72114;SHT31;59989;46.220;19.888;2023-07-28T09:30:49;28.48;39.76
72114;SHT31;59989;46.220;19.888;2023-07-28T09:33:52;28.76;39.83
72114;SHT31;59989;46.220;19.888;2023-07-28T09:36:58;29.22;38.92
72114;SHT31;59989;46.220;19.888;2023-07-28T09:40:02;28.70;39.12
72114;SHT31;59989;46.220;19.888;2023-07-28T09:43:07;28.59;38.92
72114;SHT31;59989;46.220;19.888;2023-07-28T09:46:17;29.38;38.95
72114;SHT31;59989;46.220;19.888;2023-07-28T09:52:33;30.24;36.59
72114;SHT31;59989;46.220;19.888;2023-07-28T09:55:39;29.38;37.56
72114;SHT31;59989;46.220;19.888;2023-07-28T09:58:51;30.13;37.96
72114;SHT31;59989;46.220;19.888;2023-07-28T10:01:56;29.56;37.86
72114;SHT31;59989;46.220;19.888;2023-07-28T10:05:00;28.45;38.58
72114;SHT31;59989;46.220;19.888;2023-07-28T10:08:06;29.58;37.53
72114;SHT31;59989;46.220;19.888;2023-07-28T10:11:14;29.63;37.39
72114;SHT31;59989;46.220;19.888;2023-07-28T10:14:37;30.10;37.68
72114;SHT31;59989;46.220;19.888;2023-07-28T10:17:46;30.00;38.18
72114;SHT31;59989;46.220;19.888;2023-07-28T10:21:10;29.52;37.01
72114;SHT31;59989;46.220;19.888;2023-07-28T10:24:18;30.38;37.10
72114;SHT31;59989;46.220;19.888;2023-07-28T10:27:37;31.15;36.06
72114;SHT31;59989;46.220;19.888;2023-07-28T10:30:52;31.30;35.18
72114;SHT31;59989;46.220;19.888;2023-07-28T10:33:56;31.75;34.35
72114;SHT31;59989;46.220;19.888;2023-07-28T10:37:00;31.12;35.24
72114;SHT31;59989;46.220;19.888;2023-07-28T10:43:29;31.03;35.17
72114;SHT31;59989;46.220;19.888;2023-07-28T10:46:34;31.09;35.76
72114;SHT31;59989;46.220;19.888;2023-07-28T10:49:38;32.25;34.30
72114;SHT31;59989;46.220;19.888;2023-07-28T10:52:42;31.67;34.87
72114;SHT31;59989;46.220;19.888;2023-07-28T10:55:45;31.74;35.45
72114;SHT31;59989;46.220;19.888;2023-07-28T10:58:59;31.75;34.80
72114;SHT31;59989;46.220;19.888;2023-07-28T11:02:01;30.78;35.48
72114;SHT31;59989;46.220;19.888;2023-07-28T11:05:10;31.22;35.47
72114;SHT31;59989;46.220;19.888;2023-07-28T11:08:13;31.84;34.66
72114;SHT31;59989;46.220;19.888;2023-07-28T11:11:16;31.78;34.41
72114;SHT31;59989;46.220;19.888;2023-07-28T11:14:18;31.09;34.35
72114;SHT31;59989;46.220;19.888;2023-07-28T11:17:23;31.10;34.66
72114;SHT31;59989;46.220;19.888;2023-07-28T11:20:27;31.41;34.58
72114;SHT31;59989;46.220;19.888;2023-07-28T11:23:33;32.22;34.80
72114;SHT31;59989;46.220;19.888;2023-07-28T11:26:39;31.92;34.30
72114;SHT31;59989;46.220;19.888;2023-07-28T11:29:42;31.92;33.17
72114;SHT31;59989;46.220;19.888;2023-07-28T11:32:47;32.86;32.56
72114;SHT31;59989;46.220;19.888;2023-07-28T11:35:50;33.00;33.37
72114;SHT31;59989;46.220;19.888;2023-07-28T11:38:54;33.39;31.75
72114;SHT31;59989;46.220;19.888;2023-07-28T11:41:57;34.23;31.00
72114;SHT31;59989;46.220;19.888;2023-07-28T11:45:00;34.26;31.24
72114;SHT31;59989;46.220;19.888;2023-07-28T11:48:05;34.39;31.15
72114;SHT31;59989;46.220;19.888;2023-07-28T11:51:12;34.16;31.74
72114;SHT31;59989;46.220;19.888;2023-07-28T11:54:17;34.64;30.26
72114;SHT31;59989;46.220;19.888;2023-07-28T11:57:26;34.67;30.96
72114;SHT31;59989;46.220;19.888;2023-07-28T12:00:37;34.88;29.91
72114;SHT31;59989;46.220;19.888;2023-07-28T12:03:40;34.70;31.16
72114;SHT31;59989;46.220;19.888;2023-07-28T12:07:09;34.50;31.22
72114;SHT31;59989;46.220;19.888;2023-07-28T12:10:16;35.19;30.58
72114;SHT31;59989;46.220;19.888;2023-07-28T12:13:51;35.74;29.10
72114;SHT31;59989;46.220;19.888;2023-07-28T12:16:57;37.04;28.18
72114;SHT31;59989;46.220;19.888;2023-07-28T12:20:05;36.42;28.28
72114;SHT31;59989;46.220;19.888;2023-07-28T12:23:20;37.42;27.87
72114;SHT31;59989;46.220;19.888;2023-07-28T12:26:26;35.81;28.72
72114;SHT31;59989;46.220;19.888;2023-07-28T12:29:28;36.32;29.44
72114;SHT31;59989;46.220;19.888;2023-07-28T12:32:33;35.66;28.97
72114;SHT31;59989;46.220;19.888;2023-07-28T12:35:39;35.56;29.71
72114;SHT31;59989;46.220;19.888;2023-07-28T12:38:46;36.84;28.33
72114;SHT31;59989;46.220;19.888;2023-07-28T12:41:50;36.79;29.27
72114;SHT31;59989;46.220;19.888;2023-07-28T12:45:13;37.69;28.25
72114;SHT31;59989;46.220;19.888;2023-07-28T12:48:19;36.63;28.87
72114;SHT31;59989;46.220;19.888;2023-07-28T12:51:23;35.12;29.88
72114;SHT31;59989;46.220;19.888;2023-07-28T12:54:30;37.02;28.07
72114;SHT31;59989;46.220;19.888;2023-07-28T12:57:33;36.15;29.13
72114;SHT31;59989;46.220;19.888;2023-07-28T13:00:35;37.02;27.95
72114;SHT31;59989;46.220;19.888;2023-07-28T13:03:40;37.26;27.98
72114;SHT31;59989;46.220;19.888;2023-07-28T13:06:44;37.86;27.04
72114;SHT31;59989;46.220;19.888;2023-07-28T13:09:47;37.58;27.22
72114;SHT31;59989;46.220;19.888;2023-07-28T13:12:50;38.97;25.41
72114;SHT31;59989;46.220;19.888;2023-07-28T13:15:53;39.25;27.15
72114;SHT31;59989;46.220;19.888;2023-07-28T13:18:57;39.37;25.67
72114;SHT31;59989;46.220;19.888;2023-07-28T13:22:02;37.75;26.97
72114;SHT31;59989;46.220;19.888;2023-07-28T13:25:04;40.06;25.95
72114;SHT31;59989;46.220;19.888;2023-07-28T13:28:07;39.03;25.55
72114;SHT31;59989;46.220;19.888;2023-07-28T13:31:15;38.97;25.84
72114;SHT31;59989;46.220;19.888;2023-07-28T13:34:18;39.05;26.20
72114;SHT31;59989;46.220;19.888;2023-07-28T13:37:21;39.62;25.54
72114;SHT31;59989;46.220;19.888;2023-07-28T13:40:24;40.85;24.57
72114;SHT31;59989;46.220;19.888;2023-07-28T13:43:29;38.98;26.03
72114;SHT31;59989;46.220;19.888;2023-07-28T13:46:33;39.31;25.92
72114;SHT31;59989;46.220;19.888;2023-07-28T13:49:35;41.19;24.95
72114;SHT31;59989;46.220;19.888;2023-07-28T13:52:53;41.61;24.13
72114;SHT31;59989;46.220;19.888;2023-07-28T13:55:55;40.61;25.52
72114;SHT31;59989;46.220;19.888;2023-07-28T13:58:59;39.22;26.60
72114;SHT31;59989;46.220;19.888;2023-07-28T14:02:02;38.98;26.58
72114;SHT31;59989;46.220;19.888;2023-07-28T14:05:06;41.34;24.99
72114;SHT31;59989;46.220;19.888;2023-07-28T14:08:09;39.96;25.86
72114;SHT31;59989;46.220;19.888;2023-07-28T14:11:12;41.39;24.49
72114;SHT31;59989;46.220;19.888;2023-07-28T14:14:14;42.17;24.49
72114;SHT31;59989;46.220;19.888;2023-07-28T14:17:17;41.46;24.37
72114;SHT31;59989;46.220;19.888;2023-07-28T14:20:20;41.42;25.17
72114;SHT31;59989;46.220;19.888;2023-07-28T14:23:27;41.81;24.69
72114;SHT31;59989;46.220;19.888;2023-07-28T14:26:30;44.07;23.40
72114;SHT31;59989;46.220;19.888;2023-07-28T14:29:33;42.18;24.88
72114;SHT31;59989;46.220;19.888;2023-07-28T14:32:35;41.16;25.24
72114;SHT31;59989;46.220;19.888;2023-07-28T14:35:38;41.60;24.81
72114;SHT31;59989;46.220;19.888;2023-07-28T14:38:40;41.70;24.59
72114;SHT31;59989;46.220;19.888;2023-07-28T14:41:43;40.59;25.31
72114;SHT31;59989;46.220;19.888;2023-07-28T14:44:45;40.01;26.35
72114;SHT31;59989;46.220;19.888;2023-07-28T14:47:48;41.09;25.58
72114;SHT31;59989;46.220;19.888;2023-07-28T14:50:50;40.04;26.28
72114;SHT31;59989;46.220;19.888;2023-07-28T14:53:53;40.89;26.24
72114;SHT31;59989;46.220;19.888;2023-07-28T14:56:57;40.99;25.84
72114;SHT31;59989;46.220;19.888;2023-07-28T15:00:00;40.86;25.84
72114;SHT31;59989;46.220;19.888;2023-07-28T15:03:03;41.66;25.11
72114;SHT31;59989;46.220;19.888;2023-07-28T15:06:05;38.83;27.30
72114;SHT31;59989;46.220;19.888;2023-07-28T15:09:08;41.67;25.39
72114;SHT31;59989;46.220;19.888;2023-07-28T15:12:10;42.57;24.06
72114;SHT31;59989;46.220;19.888;2023-07-28T15:15:13;41.57;24.76
72114;SHT31;59989;46.220;19.888;2023-07-28T15:18:16;43.58;23.45
72114;SHT31;59989;46.220;19.888;2023-07-28T15:21:19;42.05;24.61
72114;SHT31;59989;46.220;19.888;2023-07-28T15:24:21;40.28;25.59
72114;SHT31;59989;46.220;19.888;2023-07-28T15:27:24;40.92;25.76
72114;SHT31;59989;46.220;19.888;2023-07-28T15:30:26;43.22;24.11
72114;SHT31;59989;46.220;19.888;2023-07-28T15:33:29;42.08;24.68
72114;SHT31;59989;46.220;19.888;2023-07-28T15:36:32;42.79;24.49
72114;SHT31;59989;46.220;19.888;2023-07-28T15:39:35;41.60;25.50
72114;SHT31;59989;46.220;19.888;2023-07-28T15:42:37;41.50;25.87
72114;SHT31;59989;46.220;19.888;2023-07-28T15:45:40;40.89;26.39
72114;SHT31;59989;46.220;19.888;2023-07-28T15:48:43;40.30;26.56
72114;SHT31;59989;46.220;19.888;2023-07-28T15:51:46;39.74;26.89
72114;SHT31;59989;46.220;19.888;2023-07-28T15:54:49;41.33;26.16
72114;SHT31;59989;46.220;19.888;2023-07-28T15:57:51;40.21;26.73
72114;SHT31;59989;46.220;19.888;2023-07-28T16:00:54;41.25;25.71
72114;SHT31;59989;46.220;19.888;2023-07-28T16:03:57;41.67;25.01
72114;SHT31;59989;46.220;19.888;2023-07-28T16:06:59;39.46;27.43
72114;SHT31;59989;46.220;19.888;2023-07-28T16:10:02;36.96;30.91
72114;SHT31;59989;46.220;19.888;2023-07-28T16:13:06;34.48;34.20
72114;SHT31;59989;46.220;19.888;2023-07-28T16:16:08;33.59;35.59
72114;SHT31;59989;46.220;19.888;2023-07-28T16:19:12;32.53;37.11
72114;SHT31;59989;46.220;19.888;2023-07-28T16:22:15;31.95;39.04
72114;SHT31;59989;46.220;19.888;2023-07-28T16:25:20;30.79;39.68
72114;SHT31;59989;46.220;19.888;2023-07-28T16:28:22;30.37;40.47
72114;SHT31;59989;46.220;19.888;2023-07-28T16:31:25;30.47;41.38
72114;SHT31;59989;46.220;19.888;2023-07-28T16:34:27;30.86;40.21
72114;SHT31;59989;46.220;19.888;2023-07-28T16:37:31;32.22;37.04
72114;SHT31;59989;46.220;19.888;2023-07-28T16:40:34;34.30;34.74
72114;SHT31;59989;46.220;19.888;2023-07-28T16:43:36;34.40;34.44
72114;SHT31;59989;46.220;19.888;2023-07-28T16:46:39;34.84;34.10
72114;SHT31;59989;46.220;19.888;2023-07-28T16:49:41;35.06;34.06
72114;SHT31;59989;46.220;19.888;2023-07-28T16:52:44;34.37;35.22
72114;SHT31;59989;46.220;19.888;2023-07-28T16:55:47;32.29;38.39
72114;SHT31;59989;46.220;19.888;2023-07-28T16:58:49;30.72;40.85
72114;SHT31;59989;46.220;19.888;2023-07-28T17:01:52;30.06;42.39
72114;SHT31;59989;46.220;19.888;2023-07-28T17:04:54;29.67;43.37
72114;SHT31;59989;46.220;19.888;2023-07-28T17:07:59;29.29;44.34
72114;SHT31;59989;46.220;19.888;2023-07-28T17:11:02;29.07;45.16
72114;SHT31;59989;46.220;19.888;2023-07-28T17:14:05;28.71;45.49
72114;SHT31;59989;46.220;19.888;2023-07-28T17:17:07;28.55;46.55
72114;SHT31;59989;46.220;19.888;2023-07-28T17:20:10;28.48;46.67
72114;SHT31;59989;46.220;19.888;2023-07-28T17:23:14;28.28;47.36
72114;SHT31;59989;46.220;19.888;2023-07-28T17:26:17;28.15;47.87
72114;SHT31;59989;46.220;19.888;2023-07-28T17:29:19;28.04;48.31
72114;SHT31;59989;46.220;19.888;2023-07-28T17:32:22;27.87;49.07
72114;SHT31;59989;46.220;19.888;2023-07-28T17:35:25;27.72;49.44
72114;SHT31;59989;46.220;19.888;2023-07-28T17:38:27;27.61;49.81
72114;SHT31;59989;46.220;19.888;2023-07-28T17:41:31;27.53;50.09
72114;SHT31;59989;46.220;19.888;2023-07-28T17:44:33;27.40;50.98
72114;SHT31;59989;46.220;19.888;2023-07-28T17:47:36;27.26;51.08
72114;SHT31;59989;46.220;19.888;2023-07-28T17:50:42;27.14;51.53
72114;SHT31;59989;46.220;19.888;2023-07-28T17:53:44;27.03;52.02
72114;SHT31;59989;46.220;19.888;2023-07-28T17:56:47;26.88;53.79
72114;SHT31;59989;46.220;19.888;2023-07-28T17:59:49;26.71;53.44
72114;SHT31;59989;46.220;19.888;2023-07-28T18:02:52;26.49;54.09
72114;SHT31;59989;46.220;19.888;2023-07-28T18:05:54;26.31;55.24
72114;SHT31;59989;46.220;19.888;2023-07-28T18:08:58;26.20;54.87
72114;SHT31;59989;46.220;19.888;2023-07-28T18:12:01;26.03;55.82
72114;SHT31;59989;46.220;19.888;2023-07-28T18:15:04;25.94;56.33
72114;SHT31;59989;46.220;19.888;2023-07-28T18:18:07;25.80;55.69
72114;SHT31;59989;46.220;19.888;2023-07-28T18:21:09;25.79;55.90
72114;SHT31;59989;46.220;19.888;2023-07-28T18:24:12;25.65;56.77
72114;SHT31;59989;46.220;19.888;2023-07-28T18:27:19;25.53;59.39
72114;SHT31;59989;46.220;19.888;2023-07-28T18:30:22;25.41;58.11
72114;SHT31;59989;46.220;19.888;2023-07-28T18:33:24;25.27;57.97
72114;SHT31;59989;46.220;19.888;2023-07-28T18:36:30;25.15;58.49
72114;SHT31;59989;46.220;19.888;2023-07-28T18:39:33;25.04;59.24
72114;SHT31;59989;46.220;19.888;2023-07-28T18:42:36;24.90;59.59
72114;SHT31;59989;46.220;19.888;2023-07-28T18:45:38;24.76;61.41
72114;SHT31;59989;46.220;19.888;2023-07-28T18:48:42;24.62;60.64
72114;SHT31;59989;46.220;19.888;2023-07-28T18:51:45;24.56;60.34
72114;SHT31;59989;46.220;19.888;2023-07-28T18:54:48;24.45;61.08
72114;SHT31;59989;46.220;19.888;2023-07-28T18:57:50;24.36;61.23
72114;SHT31;59989;46.220;19.888;2023-07-28T19:00:53;24.26;61.52
72114;SHT31;59989;46.220;19.888;2023-07-28T19:03:55;24.21;61.45
72114;SHT31;59989;46.220;19.888;2023-07-28T19:06:59;24.15;62.15
72114;SHT31;59989;46.220;19.888;2023-07-28T19:10:03;23.98;64.24
72114;SHT31;59989;46.220;19.888;2023-07-28T19:13:06;23.87;64.38